KHTL/HTL METAR and TAF weather

Enter ICAO airport designator
Station Type Date Time Source
KHTL METAR 2021/09/27 05:53 UTC NOAA

KHTL 270553Z AUTO 00000KT 10SM CLR 13/09 A2976 RMK AO2 SLP078 60000 T01330094 10167 20117 58007


Station Type Date Time Source
KHTL Decoded METAR 2021/09/27 05:53 UTC NOAA

ROSCOMMON COUNTY AIRPORT, MI, United States (KHTL) 44-21N 084-40W 351M
Sep 27, 2021 - 01:53 AM EDT / 2021.09.27 0553 UTC
Wind: Calm:0
Visibility: 10 mile(s):0
Sky conditions: clear
Temperature: 55.9 F (13.3 C)
Dew Point: 48.9 F (9.4 C)
Relative Humidity: 77%
Pressure (altimeter): 29.76 in. Hg (1007 hPa)
Pressure tendency: 0.02 inches (0.7 hPa) lower than three hours ago
ob: KHTL 270553Z AUTO 00000KT 10SM CLR 13/09 A2976 RMK AO2 SLP078 60000 T01330094 10167 20117 58007
cycle: 6

Station Type Date Time Source
KHTL TAF UTC NOAA

Error!

Example: see airport list